Terminal Aerodrome Forecast
Issued by NWS

Home | Current Version | Previous Version | Text Only | Print | Product List | Glossary On
Versions: 1 2 3 4 5 6 7 8 9 10 11 12
000
FTUS41 KPBZ 261720
TAFFKL
TAF
KFKL 261720Z 2618/2718 24005KT P6SM VCSH BKN050
     FM270000 24007KT P6SM VCSH OVC035
     FM271000 00000KT 5SM BR BKN025
     FM271400 00000KT P6SM VCSH BKN015
     FM271600 00000KT P6SM VCSH BKN025=

USA.gov is the U.S. government's official web portal to all federal, state and local government web resources and services.